WetterOnline ( https://www.wetteronline.ch )

Wetter aktuell Lübeck

Aktuelles Wetter: Lübeck/Blankensee (15m)

6-stündlich | Neueste Meldungen
Ortszeit Temperatur Wetter
Mo, 09.12. 19:00 5.3° C wolkig
Mo, 09.12. 13:00 7.6° C bedeckt
Mo, 09.12. 7:00 6.2° C bewölkt
Mo, 09.12. 1:00 6.0° C wolkig
So, 08.12. 19:00 8.3° C fast wolkenlos
So, 08.12. 13:00 9.1° C Sprühregen
So, 08.12. 7:00 8.7° C bedeckt
So, 08.12. 1:00 8.3° C bedeckt
Ortszeit Temperatur Wetter
Di, 10.12. 0:10 4.2° C wolkig
Di, 10.12. 0:00 4.2° C leicht bewölkt
Mo, 09.12. 23:50 4.2° C leicht bewölkt
Mo, 09.12. 23:40 4.3° C fast wolkenlos
Mo, 09.12. 23:30 4.7° C leicht bewölkt
Mo, 09.12. 23:20 4.7° C leicht bewölkt
Mo, 09.12. 23:00 5.1° C fast wolkenlos
Mo, 09.12. 22:30 4.7° C wolkenlos
Mo, 09.12. 22:00 4.7° C wolkenlos
Mo, 09.12. 21:30 4.7° C wolkenlos
Mo, 09.12. 21:00 4.9° C wolkenlos
Ortszeit Relative Feuchte Sichtweite
Mo, 09.12. 19:00 89% 40 km
Mo, 09.12. 13:00 79% 50 km
Mo, 09.12. 7:00 81% 40 km
Mo, 09.12. 1:00 86% 40 km
So, 08.12. 19:00 79% 40 km
So, 08.12. 13:00 91% 14 km
So, 08.12. 7:00 77% 50 km
So, 08.12. 1:00 85% 35 km
Ortszeit Relative Feuchte Sichtweite
Di, 10.12. 0:10 78% -
Di, 10.12. 0:00 78% 45 km
Mo, 09.12. 23:50 78% -
Mo, 09.12. 23:40 79% -
Mo, 09.12. 23:30 78% 30 km
Mo, 09.12. 23:20 78% -
Mo, 09.12. 23:00 76% 30 km
Mo, 09.12. 22:30 78% 29 km
Mo, 09.12. 22:00 78% 29 km
Mo, 09.12. 21:30 79% 27 km
Mo, 09.12. 21:00 79% 26 km
Ortszeit Niederschlagsmenge Niederschlagsart
Mo, 09.12. 19:00 0.3 l/m2 in 12 Std. Regen
Mo, 09.12. 13:00 0.0 l/m2 in 6 Std. -
Mo, 09.12. 7:00 0.6 l/m2 in 12 Std. Regen
Mo, 09.12. 1:00 0.5 l/m2 in 6 Std. Regen
So, 08.12. 19:00 2 l/m2 in 12 Std. Regen
So, 08.12. 13:00 2 l/m2 in 6 Std. Regen
So, 08.12. 7:00 0.1 l/m2 in 12 Std. -
So, 08.12. 1:00 0.1 l/m2 in 6 Std. Regen
Ortszeit Niederschlagsmenge Niederschlagsart
Di, 10.12. 0:10 keine Meldung -
Di, 10.12. 0:00 0.0 l/m2 in 1 Std. -
Mo, 09.12. 23:50 keine Meldung -
Mo, 09.12. 23:40 keine Meldung -
Mo, 09.12. 23:30 0.0 l/m2 in 1 Std. -
Mo, 09.12. 23:20 keine Meldung -
Mo, 09.12. 23:00 0.0 l/m2 in 1 Std. -
Mo, 09.12. 22:30 0.0 l/m2 in 1 Std. -
Mo, 09.12. 22:00 0.0 l/m2 in 1 Std. -
Mo, 09.12. 21:30 0.0 l/m2 in 1 Std. -
Mo, 09.12. 21:00 0.0 l/m2 in 1 Std. -
Ortszeit Stärke Spitze Richtung
km/h Bft. km/h Grad Sektor
Mo, 09.12. 19:00 15 3 31 270° W
Mo, 09.12. 13:00 11 2 29 210° SW
Mo, 09.12. 7:00 14 3 43 200° S
Mo, 09.12. 1:00 7 2 43 230° SW
So, 08.12. 19:00 22 4 56 250° W
So, 08.12. 13:00 18 3 50 210° SW
So, 08.12. 7:00 15 3 37 210° SW
So, 08.12. 1:00 11 2 36 230° SW
Ortszeit Stärke Spitze Richtung
km/h Bft. km/h Grad Sektor
Di, 10.12. 0:10 14 3 - 280° W
Di, 10.12. 0:00 19 3 43 280° W
Mo, 09.12. 23:50 19 3 - 280° W
Mo, 09.12. 23:40 17 3 - 280° W
Mo, 09.12. 23:30 20 4 43 280° W
Mo, 09.12. 23:20 20 4 - 280° W
Mo, 09.12. 23:00 22 4 32 290° W
Mo, 09.12. 22:30 18 3 32 270° W
Mo, 09.12. 22:00 19 3 31 270° W
Mo, 09.12. 21:30 17 3 31 260° W
Mo, 09.12. 21:00 18 3 32 270° W
Ortszeit Untergrenze Bedeckung Gattung
total tief tief mittel hoch
Mo, 09.12. 19:00 2400 m 7/8 1/8 - - -
Mo, 09.12. 13:00 630 m 8/8 8/8 - - -
Mo, 09.12. 7:00 720 m 7/8 7/8 - - -
Mo, 09.12. 1:00 570 m 7/8 2/8 - - -
So, 08.12. 19:00 2700 m 1/8 1/8 - - -
So, 08.12. 13:00 360 m 8/8 8/8 - - -
So, 08.12. 7:00 630 m 8/8 8/8 - - -
So, 08.12. 1:00 1200 m 8/8 8/8 - - -
Ortszeit Bedeckungsgrad in Achtel und Wolkenuntergrenze
Di, 10.12. 0:10 3(1380m) 5(1500m)
Di, 10.12. 0:00 3(1320m) 2(1500m)
Mo, 09.12. 23:50 3(1320m)
Mo, 09.12. 23:40 1(1230m)
Mo, 09.12. 23:30 2(3300m) 2(3300m)
Mo, 09.12. 23:20 2(3300m)
Mo, 09.12. 23:00 1(3300m)
Mo, 09.12. 22:30 1(930m)
Mo, 09.12. 22:00 keine Wolken
Mo, 09.12. 21:30 keine Wolken
Mo, 09.12. 21:00 keine Wolken
Ortszeit Luftdruck NN (hPa) Tendenz (hPa in 3 Std.)
Mo, 09.12. 19:00 1002 + 4,6
Mo, 09.12. 13:00 995 + 0,8
Mo, 09.12. 7:00 993 + 0,1
Mo, 09.12. 1:00 993 - 0,7
So, 08.12. 19:00 994 + 1,1
So, 08.12. 13:00 994 - 2,2
So, 08.12. 7:00 999 - 4,2
So, 08.12. 1:00 1007 - 1,1
Ortszeit Luftdruck NN (hPa) Tendenz (hPa in 3 Std.)
Di, 10.12. 0:10 1011 keine Meldung
Di, 10.12. 0:00 1010 + 4,9
Mo, 09.12. 23:50 1010 keine Meldung
Mo, 09.12. 23:40 1010 keine Meldung
Mo, 09.12. 23:30 1009 + 5,0
Mo, 09.12. 23:20 1009 keine Meldung
Mo, 09.12. 23:00 1008 + 4,7
Mo, 09.12. 22:30 1007 + 4,5
Mo, 09.12. 22:00 1007 + 4,5
Mo, 09.12. 21:30 1006 + 4,7
Mo, 09.12. 21:00 1005 + 4,6
Ortszeit Schneehöhe (cm)
Mo, 09.12. 19:00 0
Mo, 09.12. 13:00 0
Mo, 09.12. 7:00 0
Mo, 09.12. 1:00 0
So, 08.12. 19:00 0
So, 08.12. 13:00 0
So, 08.12. 7:00 0
So, 08.12. 1:00 0
Ortszeit Schneehöhe (cm)
Di, 10.12. 0:10 0
Di, 10.12. 0:00 0
Mo, 09.12. 23:50 0
Mo, 09.12. 23:40 0
Mo, 09.12. 23:30 0
Mo, 09.12. 23:20 0
Mo, 09.12. 23:00 0
Mo, 09.12. 22:30 0
Mo, 09.12. 22:00 0
Mo, 09.12. 21:30 0
Mo, 09.12. 21:00 0
Link zu dieser Seite / Seite empfehlen

Das Wetter in ...